Aérodrome :
LOGIN :

S'inscrire | Disclaimer

   EN    FR    IT 

 










Légende :    VFR   VFR Marginal   IFR   IFR Intensif   IFR Très Intensif
Visi : 
Plafond : 
>= 8 km
>= 3000ft
5 à 8 km
1000 à 3000 ft
1500m à 5 km
500 à 1000 ft
800 à 1500m
200 à 500 ft
< 800m
< 200 ft
Symboles :   Orages  Brouillard  Fortes neiges  Fortes précipitations  Vent > 20 kt
SIGMETs :   Divers  Orages  Givrage  Turbulence  Onde Orograph.  Cendres Volcan.







- Altitude de l'aérodrome : 863 ft
- Code IATA : ZAZ


LEZG - Zaragoza Aragon

DERNIER METAR :
  • 131600Z 10003KT 070V140 9999 FEW025 SCT040 17/12 Q1025

METARs EXPIRÉS :
  • 131530Z 14003KT 070V170 9999 FEW025 SCT040 18/12 Q1025
  • 131500Z 17001KT 9000 FEW025 BKN040 18/12 Q1025
  • 131430Z 00000KT 9000 FEW025 BKN040 18/12 Q1025
  • 131400Z 28001KT 9000 FEW025 BKN040 18/12 Q1025
  • 131330Z 29003KT 250V340 9000 FEW025 BKN040 17/12 Q1025

TAF TAF LEZG
Valide du 13 à 12h jusqu'au 14 à 12h UTC


131100Z 1312/1412 31008KT 9999 FEW040 TX19/1313Z TN11/1406Z
BECMG 1313/1316 13007KT
BECMG 1322/1401 VRB03KT
PROB40
TEMPO 1322/1408 3000 BR BKN014
BECMG 1409/1411 11010KT
Pas de NOTAMs connus pour ce terrain.



MET'MAP, la Météo Aéronautique d'un coup d'oeil ! - Copyright ORBIFLY Décembre 2007 - Disclaimer

ORBIFLY MET'MAP TEAM :

Programmation & Développement : Alexandra Zaïnal
Conception & Développement : Baudouin d'Aumeries
Co-Programmation & Développement : Marc-Olivier Méhu
Soutien technique & logistique : Manuel Goepfert

Contact : metmap@orbifly.com




SOURCES & CREDITS :

   NOAA